Terminal Aerodrome Forecast
Issued by NWS Cleveland, OH

Home | Current Version | Previous Version | Graphics & Text | Print | Product List | Glossary Off
Versions: 1 2 3 4 5 6 7 8 9 10 11 12 13 14 15 16 17 18

000
FTUS41 KCLE 230532
TAFCAK
TAF
KCAK 230532Z 2306/2406 VRB03KT P6SM SCT035
      TEMPO 2306/2307 BKN030
     FM230800 VRB03KT P6SM SCT250
     FM231100 22004KT P6SM BKN110
     FM231500 22008KT P6SM BKN060
     FM240200 23006KT P6SM SCT090=

USA.gov is the U.S. government's official web portal to all federal, state and local government web resources and services.